sensor_id;sensor_type;location;lat;lon;timestamp;P1;durP1;ratioP1;P2;durP2;ratioP2
19339;SDS011;9804;52.350;6.684;2023-02-11T00:01:41;56.95;;;25.40;;
19339;SDS011;9804;52.350;6.684;2023-02-11T00:04:06;57.15;;;24.40;;
19339;SDS011;9804;52.350;6.684;2023-02-11T00:06:32;53.83;;;24.52;;
19339;SDS011;9804;52.350;6.684;2023-02-11T00:08:58;53.43;;;25.27;;
19339;SDS011;9804;52.350;6.684;2023-02-11T00:11:24;53.60;;;24.48;;
19339;SDS011;9804;52.350;6.684;2023-02-11T00:13:54;51.85;;;24.52;;
19339;SDS011;9804;52.350;6.684;2023-02-11T00:16:21;62.58;;;24.95;;
19339;SDS011;9804;52.350;6.684;2023-02-11T00:18:46;53.25;;;24.58;;
19339;SDS011;9804;52.350;6.684;2023-02-11T00:21:13;54.35;;;24.60;;
19339;SDS011;9804;52.350;6.684;2023-02-11T00:23:40;49.87;;;24.17;;
19339;SDS011;9804;52.350;6.684;2023-02-11T00:26:19;52.53;;;22.83;;
19339;SDS011;9804;52.350;6.684;2023-02-11T00:28:49;55.13;;;24.35;;
19339;SDS011;9804;52.350;6.684;2023-02-11T00:31:16;49.45;;;22.77;;
19339;SDS011;9804;52.350;6.684;2023-02-11T00:33:42;53.17;;;22.80;;
19339;SDS011;9804;52.350;6.684;2023-02-11T00:36:12;51.57;;;22.10;;
19339;SDS011;9804;52.350;6.684;2023-02-11T00:38:42;50.20;;;21.60;;
19339;SDS011;9804;52.350;6.684;2023-02-11T00:41:09;48.15;;;22.73;;
19339;SDS011;9804;52.350;6.684;2023-02-11T00:43:35;42.78;;;22.02;;
19339;SDS011;9804;52.350;6.684;2023-02-11T00:46:01;53.92;;;23.15;;
19339;SDS011;9804;52.350;6.684;2023-02-11T00:48:26;51.88;;;21.27;;
19339;SDS011;9804;52.350;6.684;2023-02-11T00:50:52;44.17;;;19.50;;
19339;SDS011;9804;52.350;6.684;2023-02-11T00:53:18;49.67;;;20.83;;
19339;SDS011;9804;52.350;6.684;2023-02-11T00:55:43;44.90;;;20.20;;
19339;SDS011;9804;52.350;6.684;2023-02-11T00:58:09;43.92;;;20.27;;
19339;SDS011;9804;52.350;6.684;2023-02-11T01:00:34;43.72;;;20.05;;
19339;SDS011;9804;52.350;6.684;2023-02-11T01:02:59;37.00;;;18.60;;
19339;SDS011;9804;52.350;6.684;2023-02-11T01:05:25;41.47;;;19.92;;
19339;SDS011;9804;52.350;6.684;2023-02-11T01:07:50;42.63;;;18.13;;
19339;SDS011;9804;52.350;6.684;2023-02-11T01:10:15;42.00;;;18.60;;
19339;SDS011;9804;52.350;6.684;2023-02-11T01:12:41;44.83;;;18.50;;
19339;SDS011;9804;52.350;6.684;2023-02-11T01:15:07;44.67;;;18.83;;
19339;SDS011;9804;52.350;6.684;2023-02-11T01:17:34;40.27;;;18.33;;
19339;SDS011;9804;52.350;6.684;2023-02-11T01:20:06;42.50;;;17.98;;
19339;SDS011;9804;52.350;6.684;2023-02-11T01:22:33;39.58;;;17.13;;
19339;SDS011;9804;52.350;6.684;2023-02-11T01:25:01;41.03;;;16.27;;
19339;SDS011;9804;52.350;6.684;2023-02-11T01:27:27;41.05;;;16.48;;
19339;SDS011;9804;52.350;6.684;2023-02-11T01:29:52;33.60;;;15.77;;
19339;SDS011;9804;52.350;6.684;2023-02-11T01:32:18;35.75;;;16.35;;
19339;SDS011;9804;52.350;6.684;2023-02-11T01:34:43;31.48;;;14.10;;
19339;SDS011;9804;52.350;6.684;2023-02-11T01:37:08;34.20;;;15.10;;
19339;SDS011;9804;52.350;6.684;2023-02-11T01:39:34;39.67;;;15.13;;
19339;SDS011;9804;52.350;6.684;2023-02-11T01:41:59;32.40;;;14.68;;
19339;SDS011;9804;52.350;6.684;2023-02-11T01:46:53;42.40;;;14.07;;
19339;SDS011;9804;52.350;6.684;2023-02-11T01:52:31;35.72;;;12.45;;
19339;SDS011;9804;52.350;6.684;2023-02-11T01:55:04;33.08;;;12.02;;
19339;SDS011;9804;52.350;6.684;2023-02-11T01:57:51;32.80;;;12.20;;
19339;SDS011;9804;52.350;6.684;2023-02-11T02:03:11;36.92;;;11.88;;
19339;SDS011;9804;52.350;6.684;2023-02-11T02:05:42;28.25;;;11.10;;
19339;SDS011;9804;52.350;6.684;2023-02-11T02:11:00;29.23;;;10.20;;
19339;SDS011;9804;52.350;6.684;2023-02-11T02:13:26;28.20;;;10.10;;
19339;SDS011;9804;52.350;6.684;2023-02-11T02:15:54;32.72;;;10.68;;
19339;SDS011;9804;52.350;6.684;2023-02-11T02:18:25;26.42;;;9.80;;
19339;SDS011;9804;52.350;6.684;2023-02-11T02:43:09;27.30;;;9.17;;
19339;SDS011;9804;52.350;6.684;2023-02-11T02:45:35;35.63;;;9.52;;
19339;SDS011;9804;52.350;6.684;2023-02-11T02:48:00;30.98;;;9.98;;
19339;SDS011;9804;52.350;6.684;2023-02-11T02:50:27;27.97;;;9.17;;
19339;SDS011;9804;52.350;6.684;2023-02-11T03:01:11;36.30;;;9.98;;
19339;SDS011;9804;52.350;6.684;2023-02-11T03:09:14;28.90;;;10.70;;
19339;SDS011;9804;52.350;6.684;2023-02-11T03:11:46;29.02;;;11.32;;
19339;SDS011;9804;52.350;6.684;2023-02-11T03:14:12;33.05;;;10.73;;
19339;SDS011;9804;52.350;6.684;2023-02-11T03:16:40;29.30;;;10.45;;
19339;SDS011;9804;52.350;6.684;2023-02-11T03:19:11;35.80;;;11.60;;
19339;SDS011;9804;52.350;6.684;2023-02-11T03:21:48;29.55;;;10.43;;
19339;SDS011;9804;52.350;6.684;2023-02-11T03:24:19;30.57;;;10.60;;
19339;SDS011;9804;52.350;6.684;2023-02-11T03:26:55;33.47;;;11.55;;
19339;SDS011;9804;52.350;6.684;2023-02-11T03:34:54;26.55;;;11.65;;
19339;SDS011;9804;52.350;6.684;2023-02-11T03:37:31;32.83;;;12.13;;
19339;SDS011;9804;52.350;6.684;2023-02-11T03:39:59;31.15;;;12.43;;
19339;SDS011;9804;52.350;6.684;2023-02-11T03:42:26;36.75;;;11.63;;
19339;SDS011;9804;52.350;6.684;2023-02-11T03:44:59;28.38;;;11.60;;
19339;SDS011;9804;52.350;6.684;2023-02-11T03:47:29;31.33;;;12.45;;
19339;SDS011;9804;52.350;6.684;2023-02-11T03:49:57;27.20;;;11.32;;
19339;SDS011;9804;52.350;6.684;2023-02-11T03:52:24;34.00;;;12.40;;
19339;SDS011;9804;52.350;6.684;2023-02-11T03:54:52;31.13;;;12.20;;
19339;SDS011;9804;52.350;6.684;2023-02-11T03:57:19;41.67;;;14.10;;
19339;SDS011;9804;52.350;6.684;2023-02-11T03:59:51;36.85;;;13.50;;
19339;SDS011;9804;52.350;6.684;2023-02-11T04:02:18;35.42;;;13.23;;
19339;SDS011;9804;52.350;6.684;2023-02-11T04:04:44;31.90;;;13.07;;
19339;SDS011;9804;52.350;6.684;2023-02-11T04:07:11;31.98;;;12.90;;
19339;SDS011;9804;52.350;6.684;2023-02-11T04:09:36;30.35;;;12.93;;
19339;SDS011;9804;52.350;6.684;2023-02-11T04:12:02;36.75;;;13.63;;
19339;SDS011;9804;52.350;6.684;2023-02-11T04:14:28;39.50;;;14.40;;
19339;SDS011;9804;52.350;6.684;2023-02-11T04:16:53;34.80;;;13.18;;
19339;SDS011;9804;52.350;6.684;2023-02-11T04:19:18;30.23;;;12.85;;
19339;SDS011;9804;52.350;6.684;2023-02-11T04:21:44;37.63;;;13.65;;
19339;SDS011;9804;52.350;6.684;2023-02-11T04:24:09;38.80;;;14.25;;
19339;SDS011;9804;52.350;6.684;2023-02-11T04:26:34;30.95;;;13.10;;
19339;SDS011;9804;52.350;6.684;2023-02-11T04:29:00;39.60;;;13.77;;
19339;SDS011;9804;52.350;6.684;2023-02-11T04:31:25;35.07;;;12.73;;
19339;SDS011;9804;52.350;6.684;2023-02-11T04:33:50;27.30;;;13.75;;
19339;SDS011;9804;52.350;6.684;2023-02-11T04:36:16;36.78;;;13.20;;
19339;SDS011;9804;52.350;6.684;2023-02-11T04:38:41;29.45;;;13.23;;
19339;SDS011;9804;52.350;6.684;2023-02-11T04:41:08;35.13;;;13.68;;
19339;SDS011;9804;52.350;6.684;2023-02-11T04:43:33;30.67;;;12.43;;
19339;SDS011;9804;52.350;6.684;2023-02-11T04:45:58;35.97;;;13.55;;
19339;SDS011;9804;52.350;6.684;2023-02-11T04:48:24;33.00;;;13.82;;
19339;SDS011;9804;52.350;6.684;2023-02-11T04:50:50;30.20;;;13.17;;
19339;SDS011;9804;52.350;6.684;2023-02-11T04:53:15;29.48;;;13.30;;
19339;SDS011;9804;52.350;6.684;2023-02-11T04:55:41;33.08;;;13.00;;
19339;SDS011;9804;52.350;6.684;2023-02-11T04:58:06;30.52;;;13.10;;
19339;SDS011;9804;52.350;6.684;2023-02-11T05:00:31;34.85;;;12.77;;
19339;SDS011;9804;52.350;6.684;2023-02-11T05:02:57;33.63;;;13.32;;
19339;SDS011;9804;52.350;6.684;2023-02-11T05:05:22;37.60;;;13.23;;
19339;SDS011;9804;52.350;6.684;2023-02-11T05:07:48;32.90;;;14.00;;
19339;SDS011;9804;52.350;6.684;2023-02-11T05:10:13;45.63;;;13.93;;
19339;SDS011;9804;52.350;6.684;2023-02-11T05:12:38;37.97;;;13.32;;
19339;SDS011;9804;52.350;6.684;2023-02-11T05:15:04;32.25;;;12.98;;
19339;SDS011;9804;52.350;6.684;2023-02-11T05:17:30;32.58;;;13.15;;
19339;SDS011;9804;52.350;6.684;2023-02-11T05:19:55;33.83;;;13.82;;
19339;SDS011;9804;52.350;6.684;2023-02-11T05:22:20;32.88;;;14.15;;
19339;SDS011;9804;52.350;6.684;2023-02-11T05:24:46;42.42;;;13.93;;
19339;SDS011;9804;52.350;6.684;2023-02-11T05:27:11;37.47;;;13.50;;
19339;SDS011;9804;52.350;6.684;2023-02-11T05:29:37;35.17;;;13.53;;
19339;SDS011;9804;52.350;6.684;2023-02-11T05:32:02;31.57;;;14.47;;
19339;SDS011;9804;52.350;6.684;2023-02-11T05:34:28;40.40;;;14.70;;
19339;SDS011;9804;52.350;6.684;2023-02-11T05:36:53;39.67;;;14.40;;
19339;SDS011;9804;52.350;6.684;2023-02-11T05:39:19;34.25;;;13.63;;
19339;SDS011;9804;52.350;6.684;2023-02-11T05:41:44;35.22;;;15.50;;
19339;SDS011;9804;52.350;6.684;2023-02-11T05:44:09;35.85;;;15.93;;
19339;SDS011;9804;52.350;6.684;2023-02-11T05:46:35;36.33;;;14.90;;
19339;SDS011;9804;52.350;6.684;2023-02-11T05:49:00;38.88;;;16.05;;
19339;SDS011;9804;52.350;6.684;2023-02-11T05:51:26;36.42;;;14.50;;
19339;SDS011;9804;52.350;6.684;2023-02-11T05:53:51;37.85;;;15.70;;
19339;SDS011;9804;52.350;6.684;2023-02-11T05:56:17;37.20;;;15.18;;
19339;SDS011;9804;52.350;6.684;2023-02-11T05:58:42;35.10;;;15.95;;
19339;SDS011;9804;52.350;6.684;2023-02-11T06:01:08;34.67;;;15.60;;
19339;SDS011;9804;52.350;6.684;2023-02-11T06:03:33;46.42;;;16.40;;
19339;SDS011;9804;52.350;6.684;2023-02-11T06:05:58;39.72;;;17.80;;
19339;SDS011;9804;52.350;6.684;2023-02-11T06:08:24;37.72;;;16.23;;
19339;SDS011;9804;52.350;6.684;2023-02-11T06:10:49;43.90;;;16.73;;
19339;SDS011;9804;52.350;6.684;2023-02-11T06:13:14;44.13;;;17.00;;
19339;SDS011;9804;52.350;6.684;2023-02-11T06:15:42;40.63;;;17.27;;
19339;SDS011;9804;52.350;6.684;2023-02-11T06:18:08;38.63;;;17.00;;
19339;SDS011;9804;52.350;6.684;2023-02-11T06:20:33;44.50;;;18.77;;
19339;SDS011;9804;52.350;6.684;2023-02-11T06:22:59;43.03;;;17.70;;
19339;SDS011;9804;52.350;6.684;2023-02-11T06:25:24;45.50;;;18.17;;
19339;SDS011;9804;52.350;6.684;2023-02-11T06:27:49;39.55;;;18.38;;
19339;SDS011;9804;52.350;6.684;2023-02-11T06:30:15;38.77;;;18.43;;
19339;SDS011;9804;52.350;6.684;2023-02-11T06:32:40;44.53;;;19.33;;
19339;SDS011;9804;52.350;6.684;2023-02-11T06:35:06;41.93;;;19.73;;
19339;SDS011;9804;52.350;6.684;2023-02-11T06:37:35;43.00;;;19.80;;
19339;SDS011;9804;52.350;6.684;2023-02-11T06:40:00;44.10;;;19.37;;
19339;SDS011;9804;52.350;6.684;2023-02-11T06:42:25;39.33;;;19.13;;
19339;SDS011;9804;52.350;6.684;2023-02-11T06:44:51;42.03;;;18.47;;
19339;SDS011;9804;52.350;6.684;2023-02-11T06:47:16;46.42;;;19.48;;
19339;SDS011;9804;52.350;6.684;2023-02-11T06:49:41;39.97;;;19.47;;
19339;SDS011;9804;52.350;6.684;2023-02-11T06:52:07;48.17;;;20.17;;
19339;SDS011;9804;52.350;6.684;2023-02-11T06:54:32;40.38;;;19.67;;
19339;SDS011;9804;52.350;6.684;2023-02-11T06:56:58;44.55;;;21.10;;
19339;SDS011;9804;52.350;6.684;2023-02-11T06:59:23;48.03;;;21.37;;
19339;SDS011;9804;52.350;6.684;2023-02-11T07:01:48;48.28;;;21.27;;
19339;SDS011;9804;52.350;6.684;2023-02-11T07:04:14;45.47;;;21.30;;
19339;SDS011;9804;52.350;6.684;2023-02-11T07:06:39;50.20;;;22.70;;
19339;SDS011;9804;52.350;6.684;2023-02-11T07:09:05;52.17;;;21.73;;
19339;SDS011;9804;52.350;6.684;2023-02-11T07:11:31;54.33;;;22.67;;
19339;SDS011;9804;52.350;6.684;2023-02-11T07:14:04;48.05;;;23.17;;
19339;SDS011;9804;52.350;6.684;2023-02-11T07:16:32;51.27;;;23.07;;
19339;SDS011;9804;52.350;6.684;2023-02-11T07:18:59;47.28;;;22.58;;
19339;SDS011;9804;52.350;6.684;2023-02-11T07:21:24;48.60;;;24.20;;
19339;SDS011;9804;52.350;6.684;2023-02-11T07:23:50;60.23;;;24.87;;
19339;SDS011;9804;52.350;6.684;2023-02-11T07:26:17;44.10;;;24.03;;
19339;SDS011;9804;52.350;6.684;2023-02-11T07:28:46;55.45;;;24.35;;
19339;SDS011;9804;52.350;6.684;2023-02-11T07:31:13;53.70;;;23.17;;
19339;SDS011;9804;52.350;6.684;2023-02-11T07:33:50;56.22;;;24.48;;
19339;SDS011;9804;52.350;6.684;2023-02-11T07:36:16;48.08;;;23.52;;
19339;SDS011;9804;52.350;6.684;2023-02-11T07:38:42;55.33;;;25.48;;
19339;SDS011;9804;52.350;6.684;2023-02-11T07:41:09;56.25;;;24.90;;
19339;SDS011;9804;52.350;6.684;2023-02-11T07:43:36;52.92;;;24.48;;
19339;SDS011;9804;52.350;6.684;2023-02-11T07:46:03;54.75;;;25.63;;
19339;SDS011;9804;52.350;6.684;2023-02-11T07:48:36;58.47;;;24.38;;
19339;SDS011;9804;52.350;6.684;2023-02-11T07:53:31;56.53;;;25.63;;
19339;SDS011;9804;52.350;6.684;2023-02-11T07:55:57;57.33;;;26.02;;
19339;SDS011;9804;52.350;6.684;2023-02-11T07:58:22;55.17;;;25.95;;
19339;SDS011;9804;52.350;6.684;2023-02-11T08:00:47;55.88;;;25.90;;
19339;SDS011;9804;52.350;6.684;2023-02-11T08:03:13;59.40;;;25.90;;
19339;SDS011;9804;52.350;6.684;2023-02-11T08:05:38;54.65;;;24.67;;
19339;SDS011;9804;52.350;6.684;2023-02-11T08:08:03;52.75;;;25.00;;
19339;SDS011;9804;52.350;6.684;2023-02-11T08:10:29;54.50;;;24.60;;
19339;SDS011;9804;52.350;6.684;2023-02-11T08:12:54;44.28;;;24.20;;
19339;SDS011;9804;52.350;6.684;2023-02-11T08:15:19;50.15;;;25.25;;
19339;SDS011;9804;52.350;6.684;2023-02-11T08:17:45;52.25;;;24.95;;
19339;SDS011;9804;52.350;6.684;2023-02-11T08:20:10;56.03;;;25.83;;
19339;SDS011;9804;52.350;6.684;2023-02-11T08:22:36;54.97;;;26.17;;
19339;SDS011;9804;52.350;6.684;2023-02-11T08:25:01;54.67;;;26.23;;
19339;SDS011;9804;52.350;6.684;2023-02-11T08:27:27;53.20;;;25.15;;
19339;SDS011;9804;52.350;6.684;2023-02-11T08:29:53;51.03;;;24.43;;
19339;SDS011;9804;52.350;6.684;2023-02-11T08:32:19;50.65;;;26.27;;
19339;SDS011;9804;52.350;6.684;2023-02-11T08:34:45;52.08;;;25.70;;
19339;SDS011;9804;52.350;6.684;2023-02-11T08:37:10;53.05;;;26.70;;
19339;SDS011;9804;52.350;6.684;2023-02-11T08:39:36;51.33;;;24.52;;
19339;SDS011;9804;52.350;6.684;2023-02-11T08:42:01;51.10;;;25.55;;
19339;SDS011;9804;52.350;6.684;2023-02-11T08:44:27;48.85;;;24.85;;
19339;SDS011;9804;52.350;6.684;2023-02-11T08:46:53;54.50;;;24.77;;
19339;SDS011;9804;52.350;6.684;2023-02-11T08:49:19;53.40;;;26.45;;
19339;SDS011;9804;52.350;6.684;2023-02-11T08:51:46;51.50;;;25.05;;
19339;SDS011;9804;52.350;6.684;2023-02-11T08:54:12;59.42;;;26.50;;
19339;SDS011;9804;52.350;6.684;2023-02-11T08:56:38;55.53;;;26.33;;
19339;SDS011;9804;52.350;6.684;2023-02-11T08:59:04;52.88;;;26.00;;
19339;SDS011;9804;52.350;6.684;2023-02-11T09:01:30;51.53;;;24.92;;
19339;SDS011;9804;52.350;6.684;2023-02-11T09:03:56;52.35;;;25.23;;
19339;SDS011;9804;52.350;6.684;2023-02-11T09:06:22;46.90;;;25.02;;
19339;SDS011;9804;52.350;6.684;2023-02-11T09:08:49;54.20;;;26.50;;
19339;SDS011;9804;52.350;6.684;2023-02-11T09:11:18;50.65;;;24.95;;
19339;SDS011;9804;52.350;6.684;2023-02-11T09:13:50;51.90;;;25.58;;
19339;SDS011;9804;52.350;6.684;2023-02-11T09:16:19;51.00;;;24.08;;
19339;SDS011;9804;52.350;6.684;2023-02-11T09:18:46;50.20;;;23.80;;
19339;SDS011;9804;52.350;6.684;2023-02-11T09:21:13;49.22;;;24.30;;
19339;SDS011;9804;52.350;6.684;2023-02-11T09:23:40;45.00;;;23.95;;
19339;SDS011;9804;52.350;6.684;2023-02-11T09:28:41;47.30;;;24.58;;
19339;SDS011;9804;52.350;6.684;2023-02-11T09:31:07;45.78;;;23.67;;
19339;SDS011;9804;52.350;6.684;2023-02-11T09:33:38;46.95;;;22.88;;
19339;SDS011;9804;52.350;6.684;2023-02-11T09:36:06;50.78;;;23.70;;
19339;SDS011;9804;52.350;6.684;2023-02-11T09:38:32;50.38;;;23.90;;
19339;SDS011;9804;52.350;6.684;2023-02-11T09:40:57;44.08;;;22.92;;
19339;SDS011;9804;52.350;6.684;2023-02-11T09:43:25;41.58;;;23.42;;
19339;SDS011;9804;52.350;6.684;2023-02-11T09:46:00;42.33;;;22.13;;
19339;SDS011;9804;52.350;6.684;2023-02-11T09:48:26;42.28;;;22.23;;
19339;SDS011;9804;52.350;6.684;2023-02-11T09:51:02;40.38;;;22.85;;
19339;SDS011;9804;52.350;6.684;2023-02-11T09:53:30;40.00;;;21.73;;
19339;SDS011;9804;52.350;6.684;2023-02-11T09:56:08;40.45;;;21.70;;
19339;SDS011;9804;52.350;6.684;2023-02-11T09:58:37;40.47;;;20.80;;
19339;SDS011;9804;52.350;6.684;2023-02-11T10:14:57;35.08;;;19.88;;
19339;SDS011;9804;52.350;6.684;2023-02-11T10:20:18;40.78;;;20.02;;
19339;SDS011;9804;52.350;6.684;2023-02-11T10:22:56;39.22;;;19.77;;
19339;SDS011;9804;52.350;6.684;2023-02-11T10:25:33;37.42;;;20.08;;
19339;SDS011;9804;52.350;6.684;2023-02-11T10:28:12;35.40;;;19.45;;
19339;SDS011;9804;52.350;6.684;2023-02-11T10:30:50;36.22;;;20.60;;
19339;SDS011;9804;52.350;6.684;2023-02-11T10:33:26;36.10;;;19.65;;
19339;SDS011;9804;52.350;6.684;2023-02-11T10:35:52;37.80;;;19.67;;
19339;SDS011;9804;52.350;6.684;2023-02-11T10:38:17;36.78;;;19.17;;
19339;SDS011;9804;52.350;6.684;2023-02-11T10:40:43;33.85;;;19.05;;
19339;SDS011;9804;52.350;6.684;2023-02-11T10:43:13;34.17;;;20.50;;
19339;SDS011;9804;52.350;6.684;2023-02-11T10:51:21;39.17;;;20.13;;
19339;SDS011;9804;52.350;6.684;2023-02-11T10:53:49;37.80;;;19.52;;
19339;SDS011;9804;52.350;6.684;2023-02-11T10:56:43;31.95;;;18.60;;
19339;SDS011;9804;52.350;6.684;2023-02-11T10:59:18;35.20;;;19.13;;
19339;SDS011;9804;52.350;6.684;2023-02-11T11:02:01;35.50;;;18.88;;
19339;SDS011;9804;52.350;6.684;2023-02-11T11:07:08;31.98;;;18.92;;
19339;SDS011;9804;52.350;6.684;2023-02-11T11:09:45;37.78;;;19.27;;
19339;SDS011;9804;52.350;6.684;2023-02-11T11:17:42;29.92;;;17.70;;
19339;SDS011;9804;52.350;6.684;2023-02-11T11:20:24;31.20;;;17.10;;
19339;SDS011;9804;52.350;6.684;2023-02-11T11:25:38;29.00;;;17.13;;
19339;SDS011;9804;52.350;6.684;2023-02-11T11:28:15;31.17;;;16.92;;
19339;SDS011;9804;52.350;6.684;2023-02-11T11:30:44;27.70;;;16.13;;
19339;SDS011;9804;52.350;6.684;2023-02-11T11:33:16;27.60;;;16.88;;
19339;SDS011;9804;52.350;6.684;2023-02-11T11:35:58;33.28;;;14.88;;
19339;SDS011;9804;52.350;6.684;2023-02-11T11:38:35;26.85;;;15.60;;
19339;SDS011;9804;52.350;6.684;2023-02-11T11:41:12;25.65;;;15.23;;
19339;SDS011;9804;52.350;6.684;2023-02-11T11:43:38;23.63;;;15.00;;
19339;SDS011;9804;52.350;6.684;2023-02-11T11:46:04;26.25;;;15.23;;
19339;SDS011;9804;52.350;6.684;2023-02-11T11:51:02;27.10;;;13.70;;
19339;SDS011;9804;52.350;6.684;2023-02-11T11:55:58;24.63;;;13.30;;
19339;SDS011;9804;52.350;6.684;2023-02-11T11:58:29;20.67;;;13.35;;
19339;SDS011;9804;52.350;6.684;2023-02-11T12:04:17;20.08;;;12.75;;
19339;SDS011;9804;52.350;6.684;2023-02-11T12:12:50;18.50;;;10.43;;
19339;SDS011;9804;52.350;6.684;2023-02-11T12:15:33;23.08;;;11.48;;
19339;SDS011;9804;52.350;6.684;2023-02-11T12:18:08;19.27;;;11.13;;
19339;SDS011;9804;52.350;6.684;2023-02-11T12:28:41;20.77;;;11.25;;
19339;SDS011;9804;52.350;6.684;2023-02-11T12:31:12;20.02;;;10.98;;
19339;SDS011;9804;52.350;6.684;2023-02-11T12:33:48;17.20;;;9.32;;
19339;SDS011;9804;52.350;6.684;2023-02-11T12:36:56;20.30;;;8.93;;
19339;SDS011;9804;52.350;6.684;2023-02-11T12:40:35;16.08;;;8.30;;
19339;SDS011;9804;52.350;6.684;2023-02-11T12:43:04;18.27;;;9.00;;
19339;SDS011;9804;52.350;6.684;2023-02-11T12:45:52;14.15;;;7.95;;
19339;SDS011;9804;52.350;6.684;2023-02-11T12:48:33;15.45;;;8.05;;
19339;SDS011;9804;52.350;6.684;2023-02-11T12:51:13;12.30;;;7.38;;
19339;SDS011;9804;52.350;6.684;2023-02-11T12:54:23;17.63;;;7.63;;
19339;SDS011;9804;52.350;6.684;2023-02-11T12:56:58;14.52;;;7.55;;
19339;SDS011;9804;52.350;6.684;2023-02-11T12:59:39;14.45;;;7.60;;
19339;SDS011;9804;52.350;6.684;2023-02-11T13:04:53;14.45;;;6.95;;
19339;SDS011;9804;52.350;6.684;2023-02-11T13:07:27;12.50;;;7.28;;
19339;SDS011;9804;52.350;6.684;2023-02-11T13:10:00;13.13;;;7.03;;
19339;SDS011;9804;52.350;6.684;2023-02-11T13:12:31;12.20;;;7.10;;
19339;SDS011;9804;52.350;6.684;2023-02-11T13:15:17;14.73;;;7.03;;
19339;SDS011;9804;52.350;6.684;2023-02-11T13:17:51;11.75;;;6.70;;
19339;SDS011;9804;52.350;6.684;2023-02-11T13:23:17;18.20;;;6.68;;
19339;SDS011;9804;52.350;6.684;2023-02-11T13:28:39;12.65;;;5.90;;
19339;SDS011;9804;52.350;6.684;2023-02-11T13:31:10;10.15;;;5.82;;
19339;SDS011;9804;52.350;6.684;2023-02-11T13:33:38;16.10;;;6.57;;
19339;SDS011;9804;52.350;6.684;2023-02-11T13:38:32;11.77;;;5.57;;
19339;SDS011;9804;52.350;6.684;2023-02-11T13:46:48;10.57;;;5.15;;
19339;SDS011;9804;52.350;6.684;2023-02-11T13:49:21;9.43;;;4.88;;
19339;SDS011;9804;52.350;6.684;2023-02-11T13:51:49;9.18;;;4.60;;
19339;SDS011;9804;52.350;6.684;2023-02-11T13:54:21;9.60;;;4.65;;
19339;SDS011;9804;52.350;6.684;2023-02-11T13:59:43;11.73;;;4.70;;
19339;SDS011;9804;52.350;6.684;2023-02-11T14:08:06;11.35;;;4.18;;
19339;SDS011;9804;52.350;6.684;2023-02-11T14:10:53;8.75;;;4.78;;
19339;SDS011;9804;52.350;6.684;2023-02-11T14:13:24;11.32;;;4.40;;
19339;SDS011;9804;52.350;6.684;2023-02-11T14:21:10;9.32;;;4.10;;
19339;SDS011;9804;52.350;6.684;2023-02-11T14:23:44;11.40;;;5.00;;
19339;SDS011;9804;52.350;6.684;2023-02-11T14:28:49;14.18;;;5.10;;
19339;SDS011;9804;52.350;6.684;2023-02-11T14:36:57;5.47;;;4.00;;
19339;SDS011;9804;52.350;6.684;2023-02-11T14:39:31;15.02;;;4.50;;
19339;SDS011;9804;52.350;6.684;2023-02-11T14:42:20;11.68;;;4.65;;
19339;SDS011;9804;52.350;6.684;2023-02-11T14:44:50;10.65;;;5.32;;
19339;SDS011;9804;52.350;6.684;2023-02-11T14:47:28;11.30;;;5.00;;
19339;SDS011;9804;52.350;6.684;2023-02-11T14:50:00;8.90;;;4.55;;
19339;SDS011;9804;52.350;6.684;2023-02-11T14:52:30;9.05;;;4.00;;
19339;SDS011;9804;52.350;6.684;2023-02-11T14:58:03;12.75;;;4.70;;
19339;SDS011;9804;52.350;6.684;2023-02-11T15:00:35;9.35;;;4.70;;
19339;SDS011;9804;52.350;6.684;2023-02-11T15:03:00;10.65;;;4.25;;
19339;SDS011;9804;52.350;6.684;2023-02-11T15:05:26;11.70;;;5.10;;
19339;SDS011;9804;52.350;6.684;2023-02-11T15:07:59;10.23;;;4.80;;
19339;SDS011;9804;52.350;6.684;2023-02-11T15:10:30;10.18;;;5.30;;
19339;SDS011;9804;52.350;6.684;2023-02-11T15:12:56;9.65;;;4.78;;
19339;SDS011;9804;52.350;6.684;2023-02-11T15:15:23;12.50;;;4.95;;
19339;SDS011;9804;52.350;6.684;2023-02-11T15:17:50;13.23;;;4.57;;
19339;SDS011;9804;52.350;6.684;2023-02-11T15:20:19;12.60;;;3.95;;
19339;SDS011;9804;52.350;6.684;2023-02-11T15:22:50;9.93;;;4.20;;
19339;SDS011;9804;52.350;6.684;2023-02-11T15:25:21;8.27;;;4.03;;
19339;SDS011;9804;52.350;6.684;2023-02-11T15:27:49;10.20;;;4.75;;
19339;SDS011;9804;52.350;6.684;2023-02-11T15:30:19;10.07;;;4.68;;
19339;SDS011;9804;52.350;6.684;2023-02-11T15:32:51;13.55;;;4.50;;
19339;SDS011;9804;52.350;6.684;2023-02-11T15:35:22;12.15;;;4.65;;
19339;SDS011;9804;52.350;6.684;2023-02-11T15:37:47;8.93;;;4.05;;
19339;SDS011;9804;52.350;6.684;2023-02-11T15:40:17;12.00;;;3.80;;
19339;SDS011;9804;52.350;6.684;2023-02-11T15:42:53;9.07;;;4.20;;
19339;SDS011;9804;52.350;6.684;2023-02-11T15:47:48;10.32;;;3.78;;
19339;SDS011;9804;52.350;6.684;2023-02-11T15:50:18;13.77;;;4.13;;
19339;SDS011;9804;52.350;6.684;2023-02-11T15:52:47;7.60;;;3.22;;
19339;SDS011;9804;52.350;6.684;2023-02-11T15:55:14;10.85;;;3.72;;
19339;SDS011;9804;52.350;6.684;2023-02-11T15:57:42;8.48;;;4.00;;
19339;SDS011;9804;52.350;6.684;2023-02-11T16:00:19;8.60;;;4.47;;
19339;SDS011;9804;52.350;6.684;2023-02-11T16:02:47;11.52;;;4.80;;
19339;SDS011;9804;52.350;6.684;2023-02-11T16:07:58;10.00;;;4.78;;
19339;SDS011;9804;52.350;6.684;2023-02-11T16:10:31;8.70;;;4.35;;
19339;SDS011;9804;52.350;6.684;2023-02-11T16:18:03;11.48;;;4.97;;
19339;SDS011;9804;52.350;6.684;2023-02-11T16:20:37;14.10;;;5.07;;
19339;SDS011;9804;52.350;6.684;2023-02-11T16:23:02;11.75;;;4.72;;
19339;SDS011;9804;52.350;6.684;2023-02-11T16:25:29;9.65;;;4.68;;
19339;SDS011;9804;52.350;6.684;2023-02-11T16:27:55;13.55;;;5.30;;
19339;SDS011;9804;52.350;6.684;2023-02-11T16:30:22;10.50;;;5.05;;
19339;SDS011;9804;52.350;6.684;2023-02-11T16:32:52;10.43;;;4.55;;
19339;SDS011;9804;52.350;6.684;2023-02-11T16:35:18;11.65;;;5.57;;
19339;SDS011;9804;52.350;6.684;2023-02-11T16:37:44;15.73;;;6.28;;
19339;SDS011;9804;52.350;6.684;2023-02-11T16:40:10;13.32;;;4.95;;
19339;SDS011;9804;52.350;6.684;2023-02-11T16:42:36;12.18;;;5.38;;
19339;SDS011;9804;52.350;6.684;2023-02-11T16:45:01;14.00;;;5.15;;
19339;SDS011;9804;52.350;6.684;2023-02-11T16:47:27;11.07;;;5.30;;
19339;SDS011;9804;52.350;6.684;2023-02-11T16:49:55;10.90;;;5.45;;
19339;SDS011;9804;52.350;6.684;2023-02-11T16:52:21;12.77;;;5.53;;
19339;SDS011;9804;52.350;6.684;2023-02-11T16:54:47;19.95;;;5.88;;
19339;SDS011;9804;52.350;6.684;2023-02-11T16:57:16;10.77;;;5.40;;
19339;SDS011;9804;52.350;6.684;2023-02-11T16:59:44;11.93;;;5.85;;
19339;SDS011;9804;52.350;6.684;2023-02-11T17:02:15;16.15;;;5.97;;
19339;SDS011;9804;52.350;6.684;2023-02-11T17:04:44;13.30;;;5.80;;
19339;SDS011;9804;52.350;6.684;2023-02-11T17:07:10;12.43;;;6.53;;
19339;SDS011;9804;52.350;6.684;2023-02-11T17:09:39;16.17;;;6.68;;
19339;SDS011;9804;52.350;6.684;2023-02-11T17:12:05;12.32;;;6.05;;
19339;SDS011;9804;52.350;6.684;2023-02-11T17:14:30;14.55;;;6.65;;
19339;SDS011;9804;52.350;6.684;2023-02-11T17:16:56;15.65;;;8.25;;
19339;SDS011;9804;52.350;6.684;2023-02-11T17:19:21;14.60;;;7.28;;
19339;SDS011;9804;52.350;6.684;2023-02-11T17:21:48;21.65;;;16.55;;
19339;SDS011;9804;52.350;6.684;2023-02-11T17:24:15;13.20;;;7.93;;
19339;SDS011;9804;52.350;6.684;2023-02-11T17:26:41;14.55;;;6.53;;
19339;SDS011;9804;52.350;6.684;2023-02-11T17:29:09;14.50;;;6.53;;
19339;SDS011;9804;52.350;6.684;2023-02-11T17:31:36;12.02;;;6.63;;
19339;SDS011;9804;52.350;6.684;2023-02-11T17:34:02;15.10;;;6.15;;